Time;durP1;ratioP1;P1;durP2;ratioP2;P2;SDS_P1;SDS_P2;PMS_P1;PMS_P2;Temp;Humidity;BMP_temperature;BMP_pressure;BME280_temperature;BME280_humidity;BME280_pressure;Samples;Min_cycle;Max_cycle;Signal;HPM_P1;HPM_P2
2020/12/01 00:02:04;;;;;;;27.33;24.37;;;1.30;99.90;;;;;;5125708;27;20634;-87
2020/12/01 00:04:35;;;;;;;28.53;23.37;;;1.30;99.90;;;;;;5106118;27;20638;-87
2020/12/01 00:07:01;;;;;;;27.63;24.73;;;1.20;99.90;;;;;;5127390;27;20622;-87
2020/12/01 00:09:27;;;;;;;26.80;23.70;;;1.30;99.90;;;;;;5127200;27;20630;-88
2020/12/01 00:11:54;;;;;;;25.10;22.57;;;1.30;99.90;;;;;;5129699;27;20647;-89
2020/12/01 00:14:21;;;;;;;27.53;23.83;;;1.40;99.90;;;;;;5123826;27;20639;-88
2020/12/01 00:16:47;;;;;;;26.13;23.53;;;1.30;99.90;;;;;;5129037;27;21159;-88
2020/12/01 00:19:14;;;;;;;28.00;24.27;;;1.30;99.90;;;;;;5126222;27;20721;-87
2020/12/01 00:21:43;;;;;;;26.50;23.70;;;1.30;99.90;;;;;;5130466;27;20618;-86
2020/12/01 00:24:10;;;;;;;26.70;23.90;;;1.30;99.90;;;;;;5135290;27;20635;-86
2020/12/01 00:26:36;;;;;;;26.07;23.27;;;1.40;99.90;;;;;;5128243;27;20618;-86
2020/12/01 00:29:04;;;;;;;28.33;25.00;;;1.50;99.90;;;;;;5124791;27;20618;-85
2020/12/01 00:31:35;;;;;;;26.67;23.70;;;1.50;99.90;;;;;;5124329;27;21258;-88
2020/12/01 00:34:02;;;;;;;28.50;24.47;;;1.40;99.90;;;;;;5114637;27;21200;-86
2020/12/01 00:36:28;;;;;;;29.20;25.97;;;1.20;99.90;;;;;;5123546;27;20619;-87
2020/12/01 00:38:54;;;;;;;26.03;23.13;;;1.10;99.90;;;;;;5122810;27;21189;-86
2020/12/01 00:41:20;;;;;;;29.17;24.07;;;1.00;99.90;;;;;;5129582;27;20654;-87
2020/12/01 00:43:47;;;;;;;28.77;25.63;;;1.20;99.90;;;;;;5125028;27;20615;-87
2020/12/01 00:46:13;;;;;;;30.07;25.17;;;1.10;99.90;;;;;;5128304;27;20611;-87
2020/12/01 00:48:40;;;;;;;26.70;23.57;;;1.10;99.90;;;;;;5117660;27;20626;-88
2020/12/01 00:51:07;;;;;;;28.10;24.13;;;1.10;99.90;;;;;;5125371;27;21224;-88
2020/12/01 00:53:33;;;;;;;28.70;23.60;;;1.10;99.90;;;;;;5123724;27;20655;-88
2020/12/01 00:55:59;;;;;;;30.07;24.80;;;1.20;99.90;;;;;;5127936;27;20614;-88
2020/12/01 00:58:26;;;;;;;28.67;24.33;;;1.10;99.90;;;;;;5133948;27;20622;-87
2020/12/01 01:00:52;;;;;;;27.97;25.00;;;1.20;99.90;;;;;;5142828;27;20619;-89
2020/12/01 01:03:19;;;;;;;28.17;22.77;;;1.20;99.90;;;;;;5143490;27;20627;-90
2020/12/01 01:05:46;;;;;;;30.30;24.37;;;1.10;99.90;;;;;;5126025;27;20986;-87
2020/12/01 01:08:13;;;;;;;28.00;23.23;;;1.10;99.90;;;;;;5125453;27;20634;-88
2020/12/01 01:10:40;;;;;;;29.20;23.10;;;1.20;99.90;;;;;;5126335;27;20699;-87
2020/12/01 01:13:07;;;;;;;24.97;22.27;;;1.20;99.90;;;;;;5124926;27;21011;-88
2020/12/01 01:15:35;;;;;;;32.47;23.60;;;1.20;99.90;;;;;;5128725;27;20635;-86
2020/12/01 01:18:03;;;;;;;25.80;22.87;;;1.30;99.90;;;;;;5126783;27;20637;-88
2020/12/01 01:20:29;;;;;;;29.47;24.20;;;1.40;99.90;;;;;;5122192;27;20642;-88
2020/12/01 01:22:57;;;;;;;27.13;23.97;;;1.50;99.90;;;;;;5128697;27;20952;-88
2020/12/01 01:25:25;;;;;;;25.03;22.20;;;1.60;99.90;;;;;;5145154;27;20619;-88
2020/12/01 01:27:51;;;;;;;25.13;22.30;;;1.60;99.90;;;;;;5139304;27;20625;-87
2020/12/01 01:30:21;;;;;;;25.30;22.73;;;1.70;99.90;;;;;;5147195;27;20646;-88
2020/12/01 01:32:47;;;;;;;28.10;25.00;;;1.70;99.90;;;;;;5146647;27;20661;-90
2020/12/01 01:35:14;;;;;;;26.27;23.47;;;1.70;99.90;;;;;;5142703;27;20617;-87
2020/12/01 01:37:40;;;;;;;26.13;23.37;;;1.70;99.90;;;;;;5139915;27;20693;-87
2020/12/01 01:40:18;;;;;;;26.80;24.00;;;1.70;99.90;;;;;;5136976;27;20670;-88
2020/12/01 01:43:15;;;;;;;25.70;23.07;;;1.70;99.90;;;;;;5128307;27;20626;-89
2020/12/01 01:45:44;;;;;;;30.60;23.47;;;1.70;99.90;;;;;;5125037;27;20622;-88
2020/12/01 01:48:21;;;;;;;26.33;23.17;;;1.70;99.90;;;;;;5126713;27;20874;-89
2020/12/01 01:50:55;;;;;;;26.27;22.63;;;1.70;99.90;;;;;;5122208;27;20646;-88
2020/12/01 01:53:22;;;;;;;27.77;23.53;;;1.80;99.90;;;;;;5119726;27;20650;-88
2020/12/01 01:55:53;;;;;;;25.53;22.93;;;1.90;99.90;;;;;;5123316;27;20615;-87
2020/12/01 01:58:22;;;;;;;26.00;23.40;;;1.80;99.90;;;;;;5127409;27;20627;-89
2020/12/01 02:00:57;;;;;;;26.47;23.77;;;2.10;99.90;;;;;;5126191;27;20656;-88
2020/12/01 02:03:33;;;;;;;26.83;23.90;;;2.00;99.90;;;;;;5128730;27;20630;-87
2020/12/01 02:06:00;;;;;;;27.17;23.30;;;2.00;99.90;;;;;;5125858;27;21182;-87
2020/12/01 02:08:27;;;;;;;25.23;22.83;;;2.00;99.90;;;;;;5112652;27;21107;-88
2020/12/01 02:10:56;;;;;;;24.53;21.97;;;2.10;99.90;;;;;;5126367;27;20661;-88
2020/12/01 02:13:37;;;;;;;25.57;22.47;;;1.90;99.90;;;;;;5131570;27;20666;-88
2020/12/01 02:16:04;;;;;;;27.10;22.67;;;2.00;99.90;;;;;;5130286;27;20628;-87
2020/12/01 02:18:34;;;;;;;25.70;23.00;;;1.90;99.90;;;;;;5122487;27;20622;-87
2020/12/01 02:21:03;;;;;;;26.83;22.43;;;1.90;99.90;;;;;;5127535;27;20630;-88
2020/12/01 02:23:30;;;;;;;25.13;22.40;;;1.90;99.90;;;;;;5132898;27;20972;-88
2020/12/01 02:26:01;;;;;;;25.13;22.53;;;2.00;99.90;;;;;;5124676;27;20626;-88
2020/12/01 02:28:29;;;;;;;25.23;22.50;;;2.10;99.90;;;;;;5121313;27;20619;-87
2020/12/01 02:30:55;;;;;;;25.50;22.90;;;2.10;99.90;;;;;;5102720;28;20662;-87
2020/12/01 02:33:22;;;;;;;23.87;21.40;;;2.30;99.90;;;;;;5124535;27;20674;-87
2020/12/01 02:35:50;;;;;;;25.93;21.97;;;2.10;99.90;;;;;;5117776;27;20621;-87
2020/12/01 02:38:18;;;;;;;26.77;23.87;;;2.10;99.90;;;;;;5128862;27;20669;-88
2020/12/01 02:40:44;;;;;;;24.03;21.60;;;2.10;99.90;;;;;;5124231;27;20646;-87
2020/12/01 02:43:11;;;;;;;24.13;21.53;;;2.20;99.90;;;;;;5122542;27;20603;-88
2020/12/01 02:45:38;;;;;;;24.93;22.43;;;2.20;99.90;;;;;;5127133;27;20622;-86
2020/12/01 02:48:05;;;;;;;25.27;22.57;;;2.20;99.90;;;;;;5125025;27;20634;-87
2020/12/01 02:50:32;;;;;;;24.63;21.93;;;2.20;99.90;;;;;;5128284;27;20659;-88
2020/12/01 02:52:58;;;;;;;26.00;23.37;;;2.30;99.90;;;;;;5125973;27;20647;-87
2020/12/01 02:55:24;;;;;;;25.10;22.60;;;2.30;99.90;;;;;;5129461;27;20631;-87
2020/12/01 02:57:50;;;;;;;24.43;21.80;;;2.30;99.90;;;;;;5122725;27;20633;-87
2020/12/01 03:00:17;;;;;;;23.70;21.40;;;2.30;99.90;;;;;;5124106;27;21017;-87
2020/12/01 03:02:44;;;;;;;24.03;21.43;;;2.20;99.90;;;;;;5122859;27;20619;-86
2020/12/01 03:05:11;;;;;;;25.93;23.23;;;2.20;99.90;;;;;;5128036;27;20607;-86
2020/12/01 03:07:37;;;;;;;24.70;22.20;;;2.10;99.90;;;;;;5117168;27;20627;-86
2020/12/01 03:10:06;;;;;;;24.13;21.73;;;2.20;99.90;;;;;;5108949;27;20643;-87
2020/12/01 03:12:33;;;;;;;23.77;21.27;;;2.20;99.90;;;;;;5105576;27;20662;-87
2020/12/01 03:15:01;;;;;;;25.53;22.77;;;2.20;99.90;;;;;;5127136;27;20623;-87
2020/12/01 03:17:30;;;;;;;25.20;22.50;;;2.30;99.90;;;;;;5127817;27;21033;-88
2020/12/01 03:19:57;;;;;;;24.33;21.70;;;2.30;99.90;;;;;;5129198;27;20650;-88
2020/12/01 03:22:23;;;;;;;24.13;21.67;;;2.20;99.90;;;;;;5123648;27;21165;-88
2020/12/01 03:24:49;;;;;;;24.40;21.80;;;2.30;99.90;;;;;;5127927;27;20618;-88
2020/12/01 03:27:16;;;;;;;24.27;21.77;;;2.30;99.90;;;;;;5123660;27;20605;-88
2020/12/01 03:29:42;;;;;;;25.13;22.30;;;2.30;99.90;;;;;;5125122;27;20651;-88
2020/12/01 03:32:08;;;;;;;24.07;21.57;;;2.30;99.90;;;;;;5127286;27;20634;-87
2020/12/01 03:34:35;;;;;;;23.07;20.67;;;2.30;99.90;;;;;;5123390;27;20661;-88
2020/12/01 03:37:02;;;;;;;25.83;22.63;;;2.40;99.90;;;;;;5121912;27;20631;-88
2020/12/01 03:39:28;;;;;;;24.33;21.80;;;2.40;99.90;;;;;;5122565;27;20622;-88
2020/12/01 03:41:54;;;;;;;26.87;23.40;;;2.40;99.90;;;;;;5126046;27;20622;-87
2020/12/01 03:44:21;;;;;;;26.07;23.40;;;2.40;99.90;;;;;;5129734;27;21169;-88
2020/12/01 03:46:47;;;;;;;28.23;24.83;;;2.30;99.90;;;;;;5126954;27;21189;-86
2020/12/01 03:49:13;;;;;;;24.43;21.83;;;2.30;99.90;;;;;;5125379;27;20622;-86
2020/12/01 03:51:39;;;;;;;24.13;21.73;;;2.20;99.90;;;;;;5126579;27;20634;-87
2020/12/01 03:54:06;;;;;;;26.20;23.53;;;2.30;99.90;;;;;;5129346;27;20674;-87
2020/12/01 03:56:33;;;;;;;24.63;22.13;;;2.30;99.90;;;;;;5129920;27;20641;-86
2020/12/01 03:58:59;;;;;;;26.20;22.77;;;2.30;99.90;;;;;;5123674;27;20653;-87
2020/12/01 04:01:26;;;;;;;24.47;21.97;;;2.30;99.90;;;;;;5122419;27;20959;-86
2020/12/01 04:03:52;;;;;;;25.20;22.50;;;2.30;99.90;;;;;;5133412;27;20611;-88
2020/12/01 04:06:19;;;;;;;25.00;22.40;;;2.20;99.90;;;;;;5129739;27;20627;-88
2020/12/01 04:08:46;;;;;;;23.87;21.50;;;2.20;99.90;;;;;;5130069;27;20637;-86
2020/12/01 04:11:14;;;;;;;26.10;23.30;;;2.20;99.90;;;;;;5124425;27;20611;-86
2020/12/01 04:13:40;;;;;;;23.90;21.50;;;2.20;99.90;;;;;;5128768;27;21235;-86
2020/12/01 04:16:06;;;;;;;27.07;24.27;;;2.30;99.90;;;;;;5121213;27;21196;-86
2020/12/01 04:18:32;;;;;;;24.50;22.00;;;2.40;99.90;;;;;;5124813;27;21020;-87
2020/12/01 04:20:59;;;;;;;26.43;23.70;;;2.30;99.90;;;;;;5132952;27;20645;-86
2020/12/01 04:23:26;;;;;;;28.37;24.30;;;2.20;99.90;;;;;;5123992;27;21000;-85
2020/12/01 04:25:52;;;;;;;27.70;24.77;;;2.40;99.90;;;;;;5121437;27;20647;-86
2020/12/01 04:28:19;;;;;;;29.03;24.43;;;2.30;99.90;;;;;;5130260;27;21001;-86
2020/12/01 04:30:46;;;;;;;26.90;23.47;;;2.20;99.90;;;;;;5124311;27;20616;-87
2020/12/01 04:33:13;;;;;;;24.77;22.07;;;2.20;99.90;;;;;;5127542;27;20650;-86
2020/12/01 04:35:39;;;;;;;23.80;21.30;;;2.30;99.90;;;;;;5122534;27;20679;-86
2020/12/01 04:38:06;;;;;;;26.27;23.47;;;2.30;99.90;;;;;;5123852;27;20638;-85
2020/12/01 04:40:37;;;;;;;26.17;23.47;;;2.30;99.90;;;;;;5124941;27;20653;-86
2020/12/01 04:43:11;;;;;;;25.67;23.07;;;2.50;99.90;;;;;;5124257;27;21241;-85
2020/12/01 04:45:41;;;;;;;23.60;21.13;;;2.40;99.90;;;;;;5120379;27;20615;-85
2020/12/01 04:48:14;;;;;;;24.73;21.83;;;2.50;99.90;;;;;;5123804;27;20962;-85
2020/12/01 04:50:45;;;;;;;23.43;21.03;;;2.70;99.90;;;;;;5121551;27;20627;-85
2020/12/01 04:53:42;;;;;;;24.53;21.93;;;2.50;99.90;;;;;;5123687;27;20755;-85
2020/12/01 04:56:37;;;;;;;23.53;21.13;;;2.40;99.90;;;;;;5119166;27;20609;-85
2020/12/01 04:59:39;;;;;;;25.70;23.10;;;2.40;99.90;;;;;;5119893;27;20615;-85
2020/12/01 05:02:33;;;;;;;23.63;21.23;;;2.30;99.90;;;;;;5117333;27;20675;-87
2020/12/01 05:05:39;;;;;;;26.73;23.90;;;2.30;99.90;;;;;;5103794;27;20627;-85
2020/12/01 05:08:39;;;;;;;25.07;22.50;;;2.30;99.90;;;;;;5100190;27;21001;-85
2020/12/01 05:11:14;;;;;;;25.40;22.80;;;2.30;99.90;;;;;;5119754;27;20628;-86
2020/12/01 05:13:40;;;;;;;26.03;23.43;;;2.30;99.90;;;;;;5120967;27;20684;-85
2020/12/01 05:16:20;;;;;;;27.53;23.57;;;2.30;99.90;;;;;;5121000;27;21094;-85
2020/12/01 05:18:47;;;;;;;24.17;21.70;;;2.40;99.90;;;;;;5120916;27;20622;-86
2020/12/01 05:21:13;;;;;;;26.87;23.53;;;2.40;99.90;;;;;;5113385;27;20612;-84
2020/12/01 05:23:44;;;;;;;27.73;24.73;;;2.50;99.90;;;;;;5122876;27;21228;-84
2020/12/01 05:26:13;;;;;;;25.93;23.27;;;2.60;99.90;;;;;;5122712;27;21186;-85
2020/12/01 05:28:45;;;;;;;26.90;24.10;;;2.50;99.90;;;;;;5120157;27;20615;-84
2020/12/01 05:31:13;;;;;;;27.47;24.70;;;2.40;99.90;;;;;;5125842;27;20629;-85
2020/12/01 05:33:40;;;;;;;27.87;24.47;;;2.40;99.90;;;;;;5124970;27;21034;-86
2020/12/01 05:36:17;;;;;;;26.37;23.57;;;2.40;99.90;;;;;;5124544;27;20614;-86
2020/12/01 05:38:55;;;;;;;27.17;23.57;;;2.40;99.90;;;;;;5118833;27;20630;-86
2020/12/01 05:41:26;;;;;;;26.77;23.97;;;2.30;99.90;;;;;;5121351;27;20980;-85
2020/12/01 05:43:55;;;;;;;25.37;22.53;;;2.50;99.90;;;;;;5112553;27;20607;-85
2020/12/01 05:46:31;;;;;;;25.47;22.87;;;2.40;99.90;;;;;;5123893;27;20625;-86
2020/12/01 05:49:03;;;;;;;26.23;23.47;;;2.40;99.90;;;;;;5119012;27;21605;-85
2020/12/01 05:51:39;;;;;;;24.77;22.30;;;2.50;99.90;;;;;;5122702;27;20626;-86
2020/12/01 05:54:09;;;;;;;26.77;23.70;;;2.40;99.90;;;;;;5122213;27;20647;-86
2020/12/01 05:56:35;;;;;;;28.03;25.13;;;2.30;99.90;;;;;;5124951;27;20819;-86
2020/12/01 05:59:06;;;;;;;25.73;23.03;;;2.30;99.90;;;;;;5120300;27;20638;-86
2020/12/01 06:01:44;;;;;;;27.10;24.27;;;2.40;99.90;;;;;;5123778;27;20646;-87
2020/12/01 06:04:15;;;;;;;27.00;23.80;;;2.60;99.90;;;;;;5121383;27;20611;-86
2020/12/01 06:07:11;;;;;;;23.87;21.53;;;2.50;99.90;;;;;;5085191;28;20631;-86
2020/12/01 06:09:53;;;;;;;24.97;22.40;;;2.50;99.90;;;;;;5112192;27;20692;-86
2020/12/01 06:12:28;;;;;;;25.60;23.03;;;2.50;99.90;;;;;;5124474;27;20658;-85
2020/12/01 06:14:58;;;;;;;23.83;21.23;;;2.50;99.90;;;;;;5125174;27;20610;-86
2020/12/01 06:17:36;;;;;;;23.87;21.30;;;2.50;99.90;;;;;;5126020;27;20616;-86
2020/12/01 06:20:15;;;;;;;22.83;20.47;;;2.50;99.90;;;;;;5129429;27;20617;-85
2020/12/01 06:23:18;;;;;;;24.10;21.50;;;2.50;99.90;;;;;;5120202;27;20643;-86
2020/12/01 06:26:11;;;;;;;23.33;20.70;;;2.60;99.90;;;;;;5122932;27;20626;-85
2020/12/01 06:29:11;;;;;;;22.87;20.57;;;2.50;99.90;;;;;;5114672;27;20615;-85
2020/12/01 06:31:55;;;;;;;23.27;20.87;;;2.40;99.90;;;;;;5118164;27;20665;-85
2020/12/01 06:34:38;;;;;;;20.43;18.40;;;2.40;99.90;;;;;;5124357;27;20646;-85
2020/12/01 06:37:24;;;;;;;20.93;18.83;;;2.40;99.90;;;;;;5122467;27;20580;-86
2020/12/01 06:40:12;;;;;;;23.40;21.10;;;2.50;99.90;;;;;;5120724;27;20582;-86
2020/12/01 06:42:44;;;;;;;21.60;19.40;;;2.70;99.90;;;;;;5116833;27;20658;-86
2020/12/01 06:45:23;;;;;;;22.10;19.80;;;2.70;99.90;;;;;;5123927;27;20576;-85
2020/12/01 06:47:52;;;;;;;21.83;18.67;;;2.60;99.90;;;;;;5121034;27;21365;-85
2020/12/01 06:50:21;;;;;;;24.93;19.83;;;2.50;99.90;;;;;;5117688;27;20622;-86
2020/12/01 06:52:55;;;;;;;20.57;18.57;;;2.50;99.90;;;;;;5129696;27;20673;-85
2020/12/01 06:55:45;;;;;;;22.17;18.43;;;2.60;99.90;;;;;;5113582;27;20610;-85
2020/12/01 06:58:21;;;;;;;21.17;19.07;;;2.50;99.90;;;;;;5124476;27;20622;-86
2020/12/01 07:00:48;;;;;;;23.20;20.90;;;2.60;99.90;;;;;;5123582;27;21141;-86
2020/12/01 07:03:24;;;;;;;23.90;21.27;;;2.60;99.90;;;;;;5122194;27;20650;-86
2020/12/01 07:05:50;;;;;;;26.40;23.90;;;2.70;99.90;;;;;;5126699;27;20613;-86
2020/12/01 07:08:26;;;;;;;24.37;21.87;;;2.60;99.90;;;;;;5118126;27;20634;-86
2020/12/01 07:11:05;;;;;;;26.27;23.63;;;2.50;99.90;;;;;;5120483;27;20598;-86
2020/12/01 07:13:41;;;;;;;27.33;24.47;;;2.60;99.90;;;;;;5124917;27;20674;-86
2020/12/01 07:16:17;;;;;;;25.30;21.73;;;2.70;99.90;;;;;;5127095;27;20623;-86
2020/12/01 07:18:46;;;;;;;29.27;24.97;;;2.50;99.90;;;;;;5126900;27;20849;-86
2020/12/01 07:21:24;;;;;;;26.67;23.97;;;2.60;99.90;;;;;;5121118;27;21178;-86
2020/12/01 07:23:57;;;;;;;28.37;25.33;;;2.60;99.90;;;;;;5127803;27;21164;-86
2020/12/01 07:26:34;;;;;;;28.13;25.20;;;2.60;99.90;;;;;;5128822;27;20627;-85
2020/12/01 07:29:46;;;;;;;30.87;27.57;;;2.60;99.90;;;;;;5123354;27;20576;-86
2020/12/01 07:32:17;;;;;;;32.83;29.17;;;2.60;99.90;;;;;;5120483;27;20666;-85
2020/12/01 07:34:43;;;;;;;29.07;25.93;;;2.60;99.90;;;;;;5129172;27;20659;-86
2020/12/01 07:37:44;;;;;;;27.53;24.70;;;2.60;99.90;;;;;;5124464;27;20619;-87
2020/12/01 07:40:10;;;;;;;28.87;25.13;;;2.70;99.90;;;;;;5110016;27;20630;-85
2020/12/01 07:42:37;;;;;;;26.50;23.50;;;2.70;99.90;;;;;;5127542;27;20645;-85
2020/12/01 07:45:14;;;;;;;25.83;23.13;;;2.70;99.90;;;;;;5130154;27;20642;-87
2020/12/01 07:47:40;;;;;;;30.20;23.97;;;2.70;99.90;;;;;;5121811;27;20617;-86
2020/12/01 07:50:14;;;;;;;27.83;24.93;;;2.70;99.90;;;;;;5124243;27;20711;-85
2020/12/01 07:52:44;;;;;;;25.90;23.13;;;2.70;99.90;;;;;;5118865;27;21098;-87
2020/12/01 07:55:20;;;;;;;26.77;23.93;;;2.60;99.90;;;;;;5126159;27;20621;-87
2020/12/01 07:57:58;;;;;;;27.03;23.93;;;2.60;99.90;;;;;;5124948;27;20613;-85
2020/12/01 08:00:27;;;;;;;24.30;21.83;;;2.50;99.90;;;;;;5124825;27;20658;-87
2020/12/01 08:03:03;;;;;;;24.47;21.77;;;2.60;99.90;;;;;;5127903;27;20638;-86
2020/12/01 08:05:30;;;;;;;26.60;24.00;;;2.60;99.90;;;;;;5121819;27;20611;-86
2020/12/01 08:07:57;;;;;;;26.27;23.53;;;2.70;99.90;;;;;;5132988;27;20625;-86
2020/12/01 08:10:25;;;;;;;29.27;26.27;;;2.70;99.90;;;;;;5128541;27;20629;-87
2020/12/01 08:12:59;;;;;;;30.00;27.00;;;2.80;99.90;;;;;;5124912;27;21316;-86
2020/12/01 08:15:28;;;;;;;27.70;24.80;;;2.70;99.90;;;;;;5128856;27;20622;-86
2020/12/01 08:17:55;;;;;;;26.83;24.07;;;2.70;99.90;;;;;;5128508;27;20622;-86
2020/12/01 08:20:24;;;;;;;26.93;24.23;;;2.70;99.90;;;;;;5120379;27;21252;-86
2020/12/01 08:22:59;;;;;;;24.53;22.03;;;2.80;99.90;;;;;;5127273;27;20769;-86
2020/12/01 08:25:29;;;;;;;26.87;24.27;;;2.70;99.90;;;;;;5124189;27;20583;-86
2020/12/01 08:28:04;;;;;;;26.47;23.60;;;2.70;99.90;;;;;;5129849;27;20618;-86
2020/12/01 08:30:45;;;;;;;22.63;20.33;;;2.70;99.90;;;;;;5121360;27;20958;-87
2020/12/01 08:33:21;;;;;;;22.57;20.03;;;2.60;99.90;;;;;;5124382;27;20759;-86
2020/12/01 08:35:57;;;;;;;20.07;18.00;;;2.70;99.90;;;;;;5126445;27;20633;-87
2020/12/01 08:38:41;;;;;;;21.10;18.90;;;2.80;99.90;;;;;;5124962;27;20668;-87
2020/12/01 08:41:19;;;;;;;20.83;18.63;;;2.90;99.90;;;;;;5125527;27;20611;-87
2020/12/01 08:43:49;;;;;;;20.07;18.10;;;2.90;99.90;;;;;;5125467;27;20611;-86
2020/12/01 08:46:22;;;;;;;20.13;18.03;;;2.90;99.90;;;;;;5126530;27;20599;-86
2020/12/01 08:48:51;;;;;;;20.73;18.30;;;2.70;99.90;;;;;;5124337;27;20649;-87
2020/12/01 08:51:29;;;;;;;23.30;19.97;;;2.70;99.90;;;;;;5126956;27;20658;-86
2020/12/01 08:54:06;;;;;;;21.33;19.33;;;2.80;99.90;;;;;;5123248;27;20642;-86
2020/12/01 08:56:54;;;;;;;21.50;19.30;;;2.80;99.90;;;;;;5127364;27;21186;-87
2020/12/01 08:59:27;;;;;;;21.80;19.60;;;2.80;99.90;;;;;;5101273;27;20623;-86
2020/12/01 09:02:00;;;;;;;23.00;20.43;;;2.90;99.90;;;;;;5120715;27;20638;-85
2020/12/01 09:04:29;;;;;;;24.73;22.23;;;2.90;99.90;;;;;;5126520;27;20622;-87
2020/12/01 09:07:07;;;;;;;27.23;24.30;;;2.90;99.90;;;;;;5124172;27;20618;-87
2020/12/01 09:09:34;;;;;;;26.53;23.83;;;2.80;99.90;;;;;;5121544;27;20633;-87
2020/12/01 09:15:13;;;;;;;25.17;22.47;;;2.80;99.90;;;;;;5123732;27;20649;-87
2020/12/01 09:17:54;;;;;;;24.50;22.00;;;2.80;99.90;;;;;;5120920;27;21045;-86
2020/12/01 09:23:12;;;;;;;26.77;23.40;;;2.70;99.90;;;;;;5107307;27;21196;-86
2020/12/01 09:25:41;;;;;;;24.30;21.83;;;2.70;99.90;;;;;;5117774;27;20622;-86
2020/12/01 09:28:15;;;;;;;25.77;23.00;;;2.70;99.90;;;;;;5101866;27;21108;-85
2020/12/01 09:30:43;;;;;;;26.17;23.43;;;2.80;99.90;;;;;;5120892;27;20721;-86
2020/12/01 09:33:13;;;;;;;26.27;23.57;;;2.80;99.90;;;;;;5121483;27;20667;-86
2020/12/01 09:35:40;;;;;;;26.27;23.10;;;2.90;99.90;;;;;;5123812;27;20622;-86
2020/12/01 09:38:06;;;;;;;27.03;22.87;;;2.90;99.90;;;;;;5121373;27;20668;-85
2020/12/01 09:40:34;;;;;;;24.83;22.23;;;2.90;99.90;;;;;;5122090;27;20620;-87
2020/12/01 09:43:08;;;;;;;25.20;22.60;;;3.00;99.90;;;;;;5123267;27;20663;-85
2020/12/01 09:45:36;;;;;;;27.67;24.83;;;3.00;99.90;;;;;;5124207;27;20702;-86
2020/12/01 09:48:07;;;;;;;24.73;22.33;;;3.00;99.90;;;;;;5125840;27;20623;-85
2020/12/01 09:50:36;;;;;;;24.60;22.20;;;3.00;99.90;;;;;;5130567;27;21016;-85
2020/12/01 09:53:29;;;;;;;28.53;23.33;;;3.10;99.90;;;;;;5117173;27;20671;-85
2020/12/01 10:10:22;;;;;;;25.93;23.17;;;3.30;99.90;;;;;;5122955;27;20651;-86
2020/12/01 10:12:56;;;;;;;29.03;23.67;;;3.20;99.90;;;;;;5122785;27;21019;-85
2020/12/01 10:15:40;;;;;;;27.53;22.87;;;3.20;99.90;;;;;;5127309;27;20709;-85
2020/12/01 10:27:00;;;;;;;25.37;22.93;;;3.10;99.90;;;;;;5086336;27;20717;-86
2020/12/01 10:32:26;;;;;;;24.20;21.73;;;3.20;99.90;;;;;;5125762;27;20655;-87
2020/12/01 10:34:57;;;;;;;24.10;21.60;;;3.30;99.90;;;;;;5123389;27;20669;-86
2020/12/01 10:37:24;;;;;;;23.93;21.17;;;3.30;99.90;;;;;;5123395;27;21164;-86
2020/12/01 10:39:51;;;;;;;22.83;18.93;;;3.20;99.90;;;;;;5123923;27;20642;-85
2020/12/01 10:42:17;;;;;;;21.10;19.03;;;3.20;99.90;;;;;;5124345;27;20659;-86
2020/12/01 10:44:44;;;;;;;19.63;17.53;;;3.10;99.90;;;;;;5122625;27;21185;-86
2020/12/01 10:47:10;;;;;;;23.00;20.20;;;3.10;99.90;;;;;;5124665;27;21196;-86
2020/12/01 10:49:37;;;;;;;23.00;20.80;;;3.10;99.90;;;;;;5131272;27;20641;-86
2020/12/01 10:52:04;;;;;;;23.17;18.70;;;3.10;99.90;;;;;;5126754;27;20643;-86
2020/12/01 10:54:30;;;;;;;24.03;21.30;;;3.10;99.90;;;;;;5128409;27;20662;-87
2020/12/01 10:56:58;;;;;;;18.20;16.40;;;3.20;99.90;;;;;;5125699;27;20631;-86
2020/12/01 10:59:25;;;;;;;18.43;16.67;;;3.20;99.90;;;;;;5130224;27;20622;-86
2020/12/01 11:01:52;;;;;;;18.60;16.87;;;3.30;99.90;;;;;;5132883;27;20645;-87
2020/12/01 11:04:18;;;;;;;20.67;17.93;;;3.20;99.90;;;;;;5129097;27;20742;-87
2020/12/01 11:06:45;;;;;;;18.23;16.53;;;3.30;99.90;;;;;;5129464;27;20603;-88
2020/12/01 11:09:11;;;;;;;20.80;18.57;;;3.40;99.90;;;;;;5131093;27;20630;-86
2020/12/01 11:11:38;;;;;;;20.37;18.37;;;3.40;99.90;;;;;;5131954;27;21513;-86
2020/12/01 11:14:07;;;;;;;20.87;17.53;;;3.40;99.90;;;;;;5133758;27;20677;-87
2020/12/01 11:16:33;;;;;;;21.03;18.90;;;3.50;99.90;;;;;;5130158;27;20633;-87
2020/12/01 11:19:00;;;;;;;22.07;19.77;;;3.60;99.90;;;;;;5135086;27;20618;-87
2020/12/01 11:21:26;;;;;;;20.97;18.80;;;3.60;99.90;;;;;;5134889;27;20615;-87
2020/12/01 11:23:52;;;;;;;21.70;19.60;;;3.60;99.90;;;;;;5123682;27;20622;-85
2020/12/01 11:26:20;;;;;;;22.93;20.37;;;3.50;99.90;;;;;;5129153;27;20714;-86
2020/12/01 11:28:48;;;;;;;21.20;19.20;;;3.50;99.90;;;;;;5123886;27;21262;-86
2020/12/01 11:31:15;;;;;;;18.80;16.90;;;3.50;99.90;;;;;;5122147;27;20631;-86
2020/12/01 11:33:41;;;;;;;20.77;18.80;;;3.50;99.90;;;;;;5129763;27;20654;-85
2020/12/01 11:36:08;;;;;;;21.63;19.33;;;3.50;99.90;;;;;;5100901;27;20631;-86
2020/12/01 11:38:37;;;;;;;20.40;18.40;;;3.50;99.90;;;;;;5125661;27;20623;-87
2020/12/01 11:41:03;;;;;;;20.13;18.17;;;3.60;99.90;;;;;;5124850;27;20665;-86
2020/12/01 11:43:29;;;;;;;19.90;18.03;;;3.50;99.90;;;;;;5135979;27;21211;-86
2020/12/01 11:45:55;;;;;;;19.87;18.03;;;3.50;99.90;;;;;;5126246;27;20967;-86
2020/12/01 11:48:23;;;;;;;22.20;18.90;;;3.50;99.90;;;;;;5136065;27;20614;-87
2020/12/01 11:50:49;;;;;;;18.90;17.07;;;3.50;99.90;;;;;;5126250;27;20622;-86
2020/12/01 11:53:15;;;;;;;18.43;16.53;;;3.50;99.90;;;;;;5136387;27;20671;-86
2020/12/01 11:55:42;;;;;;;17.77;16.07;;;3.60;99.90;;;;;;5129295;27;20967;-87
2020/12/01 11:58:08;;;;;;;17.40;15.80;;;3.60;99.90;;;;;;5125103;27;20615;-86
2020/12/01 12:00:34;;;;;;;17.10;15.50;;;3.70;99.90;;;;;;5125159;27;20611;-86
2020/12/01 12:03:00;;;;;;;17.13;15.53;;;3.70;99.90;;;;;;5122225;27;20660;-86
2020/12/01 12:05:28;;;;;;;19.63;17.63;;;3.70;99.90;;;;;;5122061;27;20660;-85
2020/12/01 12:07:55;;;;;;;17.20;15.50;;;3.80;99.90;;;;;;5128107;27;20615;-86
2020/12/01 12:10:21;;;;;;;16.70;15.20;;;3.80;99.90;;;;;;5124384;27;20621;-86
2020/12/01 12:12:48;;;;;;;14.87;13.50;;;3.70;99.90;;;;;;5124933;27;20767;-86
2020/12/01 12:15:14;;;;;;;17.43;15.37;;;3.70;99.90;;;;;;5124693;27;20666;-86
2020/12/01 12:17:41;;;;;;;17.80;16.10;;;3.70;99.90;;;;;;5128401;27;20622;-86
2020/12/01 12:20:07;;;;;;;22.13;17.63;;;3.70;99.90;;;;;;5125585;27;20627;-86
2020/12/01 12:22:35;;;;;;;16.93;15.23;;;3.70;99.90;;;;;;5123152;27;20645;-87
2020/12/01 12:25:02;;;;;;;19.40;17.33;;;3.90;99.90;;;;;;5122890;27;20618;-87
2020/12/01 12:27:28;;;;;;;19.60;17.70;;;4.00;99.90;;;;;;5126765;27;21176;-86
2020/12/01 12:29:55;;;;;;;17.17;15.43;;;3.90;99.90;;;;;;5122441;27;20631;-86
2020/12/01 12:32:21;;;;;;;20.37;18.37;;;3.90;99.90;;;;;;5127585;27;20669;-85
2020/12/01 12:34:47;;;;;;;19.37;17.53;;;3.90;99.90;;;;;;5128818;27;20662;-86
2020/12/01 12:37:14;;;;;;;19.83;17.93;;;3.90;99.90;;;;;;5126532;27;20799;-86
2020/12/01 12:39:41;;;;;;;21.60;19.50;;;3.90;99.90;;;;;;5131961;27;21199;-86
2020/12/01 12:42:07;;;;;;;18.57;16.77;;;4.00;99.90;;;;;;5123985;27;20638;-86
2020/12/01 12:44:34;;;;;;;17.90;16.30;;;3.90;99.90;;;;;;5125751;27;20607;-86
2020/12/01 12:47:00;;;;;;;18.87;17.03;;;3.90;99.90;;;;;;5127371;27;20627;-86
2020/12/01 12:49:26;;;;;;;18.50;15.97;;;3.80;99.90;;;;;;5125677;27;20623;-85
2020/12/01 12:51:54;;;;;;;18.07;16.00;;;3.80;99.90;;;;;;5128492;27;20643;-85
2020/12/01 12:54:21;;;;;;;18.00;16.30;;;3.80;99.90;;;;;;5130207;27;20654;-85
2020/12/01 12:56:48;;;;;;;18.60;16.80;;;3.80;99.90;;;;;;5128161;27;20666;-85
2020/12/01 12:59:14;;;;;;;16.30;14.73;;;3.80;99.90;;;;;;5127569;27;20627;-86
2020/12/01 13:01:41;;;;;;;16.17;14.70;;;3.80;99.90;;;;;;5120604;27;20786;-86
2020/12/01 13:04:07;;;;;;;15.73;14.30;;;3.80;99.90;;;;;;5123219;27;20620;-86
2020/12/01 13:06:34;;;;;;;16.93;15.33;;;3.80;99.90;;;;;;5133845;27;20621;-85
2020/12/01 13:09:00;;;;;;;14.40;13.10;;;3.90;99.90;;;;;;5127352;27;21357;-86
2020/12/01 13:11:26;;;;;;;14.83;13.40;;;3.80;99.90;;;;;;5127959;27;21060;-86
2020/12/01 13:13:54;;;;;;;15.07;13.63;;;3.80;99.90;;;;;;5125527;27;21404;-87
2020/12/01 13:16:23;;;;;;;16.10;14.57;;;3.80;99.90;;;;;;5126348;27;20631;-86
2020/12/01 13:18:50;;;;;;;16.87;15.13;;;3.70;99.90;;;;;;5120647;27;20631;-87
2020/12/01 13:21:17;;;;;;;17.00;15.50;;;3.60;99.90;;;;;;5122332;27;20941;-87
2020/12/01 13:23:43;;;;;;;17.30;15.67;;;3.50;99.90;;;;;;5130021;27;20769;-87
2020/12/01 13:26:09;;;;;;;16.90;15.30;;;3.60;99.90;;;;;;5120263;27;20706;-86